createdAt,value
2023-01-12T00:00:21.679Z,100610.25
2023-01-12T00:05:23.351Z,100605.44
2023-01-12T00:10:25.057Z,100598.22
2023-01-12T00:15:58.560Z,100586.91
2023-01-12T00:21:00.257Z,100578.00
2023-01-12T00:26:01.994Z,100561.91
2023-01-12T00:31:09.559Z,100550.25
2023-01-12T00:36:16.673Z,100553.88
2023-01-12T00:41:38.256Z,100541.69
2023-01-12T00:46:39.876Z,100540.50
2023-01-12T00:51:41.919Z,100515.13
2023-01-12T00:56:43.596Z,100504.00
2023-01-12T01:01:45.284Z,100502.63
2023-01-12T01:06:47.028Z,100501.25
2023-01-12T01:11:48.688Z,100474.84
2023-01-12T01:16:50.376Z,100474.34
2023-01-12T01:21:51.995Z,100473.34
2023-01-12T01:26:53.672Z,100470.25
2023-01-12T01:31:55.818Z,100447.44
2023-01-12T01:36:57.519Z,100433.03
2023-01-12T01:41:59.222Z,100430.13
2023-01-12T01:47:12.027Z,100426.81
2023-01-12T01:52:20.946Z,100415.34
2023-01-12T01:57:30.381Z,100405.91
2023-01-12T02:02:32.408Z,100397.00
2023-01-12T02:07:34.433Z,100392.53
2023-01-12T02:12:54.844Z,100377.25
2023-01-12T02:18:19.049Z,100346.56
2023-01-12T02:23:58.201Z,100337.66
2023-01-12T02:29:25.761Z,100332.47
2023-01-12T02:34:42.652Z,100319.25
2023-01-12T02:39:59.905Z,100302.25
2023-01-12T02:45:22.912Z,100294.47
2023-01-12T02:50:35.539Z,100290.66
2023-01-12T02:55:39.409Z,100288.31
2023-01-12T03:00:43.772Z,100261.59
2023-01-12T03:05:45.915Z,100239.69
2023-01-12T03:11:16.783Z,100215.69
2023-01-12T03:16:23.054Z,100198.09
2023-01-12T03:21:36.260Z,100154.22
2023-01-12T03:26:43.583Z,100128.00
2023-01-12T03:31:45.766Z,100090.44
2023-01-12T03:37:03.332Z,100073.56
2023-01-12T03:42:12.124Z,100059.88
2023-01-12T03:47:28.885Z,100036.69
2023-01-12T03:52:31.356Z,100023.47
2023-01-12T03:57:33.794Z,100010.78
2023-01-12T04:02:35.550Z,99991.91
2023-01-12T04:07:37.179Z,100002.50
2023-01-12T04:12:38.758Z,99972.88
2023-01-12T04:17:40.538Z,99988.97
2023-01-12T04:22:44.967Z,99970.81
2023-01-12T04:27:49.622Z,99980.19
2023-01-12T04:32:51.477Z,99962.41
2023-01-12T04:37:53.834Z,99943.09
2023-01-12T04:43:02.417Z,99951.16
2023-01-12T04:48:10.435Z,99945.09
2023-01-12T04:53:13.095Z,99962.97
2023-01-12T04:58:14.804Z,99959.19
2023-01-12T05:03:16.570Z,99948.31
2023-01-12T05:08:36.883Z,99947.19
2023-01-12T05:13:38.552Z,99956.16
2023-01-12T05:18:40.175Z,99953.88
2023-01-12T05:23:41.799Z,99952.41
2023-01-12T05:28:43.632Z,99941.09
2023-01-12T05:33:46.024Z,99963.94
2023-01-12T05:38:47.702Z,99965.03
2023-01-12T05:43:52.717Z,99928.41
2023-01-12T05:48:56.428Z,99935.22
2023-01-12T05:53:58.386Z,99935.31
2023-01-12T05:59:01.789Z,99952.13
2023-01-12T06:04:03.447Z,99952.13
2023-01-12T06:09:05.290Z,99940.28
2023-01-12T06:14:08.669Z,99959.78
2023-01-12T06:19:12.802Z,99953.66
2023-01-12T06:24:14.878Z,99940.00
2023-01-12T06:29:16.526Z,99949.16
2023-01-12T06:34:18.243Z,99951.50
2023-01-12T06:39:19.835Z,99956.50
2023-01-12T06:44:21.422Z,99958.78
2023-01-12T06:49:23.075Z,99966.59
2023-01-12T06:54:24.668Z,99960.56
2023-01-12T06:59:26.280Z,99974.53
2023-01-12T07:04:27.970Z,99972.84
2023-01-12T07:09:29.580Z,99987.44
2023-01-12T07:14:31.274Z,99990.16
2023-01-12T07:19:32.883Z,100005.41
2023-01-12T07:24:34.756Z,99990.69
2023-01-12T07:29:36.338Z,99993.72
2023-01-12T07:34:37.986Z,100014.91
2023-01-12T07:39:39.600Z,100020.31
2023-01-12T07:44:42.051Z,100023.06
2023-01-12T07:49:43.739Z,100011.91
2023-01-12T07:54:45.345Z,100019.94
2023-01-12T07:59:46.961Z,100034.53
2023-01-12T08:04:48.698Z,100053.44
2023-01-12T08:09:50.618Z,100066.13
2023-01-12T08:14:52.309Z,100075.78
2023-01-12T08:20:00.354Z,100072.78
2023-01-12T08:25:16.586Z,100085.03
2023-01-12T08:30:22.873Z,100095.44
2023-01-12T08:35:28.052Z,100103.16
2023-01-12T08:40:49.619Z,100103.81
2023-01-12T08:45:51.264Z,100098.72
2023-01-12T08:50:54.249Z,100102.19
2023-01-12T08:55:56.461Z,100102.13
2023-01-12T09:01:05.991Z,100104.69
2023-01-12T09:06:13.654Z,100121.41
2023-01-12T09:11:15.876Z,100115.66
2023-01-12T09:16:19.279Z,100134.03
2023-01-12T09:21:22.812Z,100149.47
2023-01-12T09:26:28.330Z,100166.63
2023-01-12T09:31:32.318Z,100169.38
2023-01-12T09:36:36.160Z,100164.66
2023-01-12T09:41:59.697Z,100177.34
2023-01-12T09:47:04.125Z,100174.22
2023-01-12T09:52:15.094Z,100195.63
2023-01-12T09:57:40.028Z,100195.13
2023-01-12T10:02:52.054Z,100198.66
2023-01-12T10:07:56.162Z,100201.69
2023-01-12T10:13:04.951Z,100199.59
2023-01-12T10:18:21.199Z,100211.63
2023-01-12T10:23:27.941Z,100220.44
2023-01-12T10:28:36.158Z,100216.47
2023-01-12T10:33:37.752Z,100231.91
2023-01-12T10:39:03.741Z,100219.13
2023-01-12T10:44:13.071Z,100221.00
2023-01-12T10:49:18.081Z,100219.78
2023-01-12T10:54:22.608Z,100212.97
2023-01-12T10:59:29.361Z,100215.31
2023-01-12T11:04:39.058Z,100192.69
2023-01-12T11:09:43.055Z,100201.59
2023-01-12T11:14:58.175Z,100205.19
2023-01-12T11:20:02.126Z,100190.78
2023-01-12T11:25:14.602Z,100194.19
2023-01-12T11:30:37.141Z,100199.91
2023-01-12T11:35:47.040Z,100200.09
2023-01-12T11:40:49.289Z,100206.59
2023-01-12T11:45:59.395Z,100197.16
2023-01-12T11:51:01.501Z,100181.88
2023-01-12T11:56:09.082Z,100187.38
2023-01-12T12:01:21.833Z,100181.31
2023-01-12T12:06:31.093Z,100179.13
2023-01-12T12:11:46.146Z,100163.13
2023-01-12T12:17:09.742Z,100167.28
2023-01-12T12:22:11.335Z,100159.63
2023-01-12T12:27:25.838Z,100159.53
2023-01-12T12:32:49.049Z,100151.88
2023-01-12T12:38:22.759Z,100137.47
2023-01-12T12:43:52.541Z,100134.16
2023-01-12T12:49:07.836Z,100126.50
2023-01-12T12:54:18.575Z,100120.16
2023-01-12T12:59:38.596Z,100109.53
2023-01-12T13:04:43.315Z,100105.28
2023-01-12T13:09:46.697Z,100103.00
2023-01-12T13:15:25.024Z,100099.72
2023-01-12T13:20:49.813Z,100095.72
2023-01-12T13:25:56.877Z,100086.00
2023-01-12T13:31:00.344Z,100089.50
2023-01-12T13:36:08.101Z,100091.28
2023-01-12T13:41:13.872Z,100081.41
2023-01-12T13:46:18.475Z,100085.41
2023-01-12T13:51:25.850Z,100073.09
2023-01-12T13:56:28.826Z,100049.81
2023-01-12T14:01:39.570Z,100075.88
2023-01-12T14:07:11.329Z,100066.00
2023-01-12T14:12:34.311Z,100066.66
2023-01-12T14:17:57.723Z,100065.44
2023-01-12T14:23:28.786Z,100044.78
2023-01-12T14:28:31.647Z,100042.50
2023-01-12T14:33:36.895Z,100041.84
2023-01-12T14:38:43.668Z,100038.13
2023-01-12T14:44:04.443Z,100029.88
2023-01-12T14:49:25.756Z,100043.53
2023-01-12T14:54:30.987Z,100024.25
2023-01-12T14:59:34.997Z,100018.47
2023-01-12T15:04:36.791Z,100005.16
2023-01-12T15:09:54.032Z,100013.38
2023-01-12T15:15:49.141Z,100021.22
2023-01-12T15:21:09.898Z,100004.84
2023-01-12T15:26:14.199Z,100011.28
2023-01-12T15:31:29.001Z,100012.06
2023-01-12T15:36:30.970Z,99993.22
2023-01-12T15:41:51.398Z,100023.97
2023-01-12T15:46:53.154Z,100010.75
2023-01-12T15:51:54.918Z,100013.09
2023-01-12T15:56:59.555Z,100034.81
2023-01-12T16:02:01.454Z,100025.16
2023-01-12T16:07:03.167Z,100015.47
2023-01-12T16:12:05.121Z,100016.13
2023-01-12T16:17:07.024Z,100015.72
2023-01-12T16:22:21.695Z,100010.41
2023-01-12T16:27:25.152Z,100011.94
2023-01-12T16:32:27.551Z,100028.44
2023-01-12T16:37:33.160Z,100013.91
2023-01-12T16:42:35.033Z,100019.00
2023-01-12T16:47:36.842Z,100034.19
2023-01-12T16:52:38.770Z,100021.22
2023-01-12T16:57:41.193Z,100005.41
2023-01-12T17:02:43.178Z,100009.56
2023-01-12T17:07:47.207Z,99989.97
2023-01-12T17:12:54.305Z,100001.22
2023-01-12T17:18:06.048Z,100013.13
2023-01-12T17:23:08.016Z,100020.84
2023-01-12T17:28:10.026Z,100039.00
2023-01-12T17:33:11.794Z,100011.06
2023-01-12T17:38:13.665Z,100010.41
2023-01-12T17:43:15.337Z,100025.44
2023-01-12T17:48:19.580Z,100017.56
2023-01-12T17:53:21.377Z,100009.56
2023-01-12T17:58:23.043Z,100014.38
2023-01-12T18:03:24.867Z,100018.44
2023-01-12T18:08:26.727Z,100013.97
2023-01-12T18:13:28.409Z,100006.72
2023-01-12T18:18:30.486Z,100014.75
2023-01-12T18:23:32.571Z,100028.50
2023-01-12T18:28:36.670Z,100008.25
2023-01-12T18:33:38.678Z,100009.94
2023-01-12T18:38:41.523Z,100007.25
2023-01-12T18:43:44.494Z,100013.13
2023-01-12T18:48:47.667Z,100008.69
2023-01-12T18:53:49.376Z,99985.88
2023-01-12T18:58:52.034Z,100003.97
2023-01-12T19:03:53.801Z,99996.19
2023-01-12T19:09:14.204Z,100010.53
2023-01-12T19:14:34.334Z,100007.78
2023-01-12T19:19:36.173Z,99996.78
2023-01-12T19:24:56.412Z,100000.50
2023-01-12T19:29:58.145Z,99988.03
2023-01-12T19:35:10.221Z,99973.63
2023-01-12T19:40:20.362Z,99954.97
2023-01-12T19:45:22.120Z,99941.06
2023-01-12T19:50:24.009Z,99945.31
2023-01-12T19:55:25.915Z,99949.09
2023-01-12T20:00:28.184Z,99966.25
2023-01-12T20:05:54.455Z,99947.06
2023-01-12T20:11:04.771Z,99978.34
2023-01-12T20:16:10.991Z,99959.63
2023-01-12T20:21:12.850Z,99963.03
2023-01-12T20:26:15.647Z,99973.16
2023-01-12T20:31:20.314Z,99967.59
2023-01-12T20:36:22.049Z,99977.06
2023-01-12T20:41:23.834Z,99973.88
2023-01-12T20:46:26.272Z,99971.31
2023-01-12T20:51:29.419Z,99960.22
2023-01-12T20:56:31.832Z,99970.31
2023-01-12T21:01:33.897Z,99951.75
2023-01-12T21:06:35.898Z,99966.97
2023-01-12T21:11:37.621Z,99962.59
2023-01-12T21:16:39.515Z,99959.31
2023-01-12T21:21:41.300Z,99980.53
2023-01-12T21:26:43.003Z,99974.28
2023-01-12T21:31:44.678Z,99972.59
2023-01-12T21:36:46.479Z,99993.72
2023-01-12T21:42:06.668Z,99978.75
2023-01-12T21:47:08.741Z,100001.47
2023-01-12T21:52:10.644Z,99997.75
2023-01-12T21:57:12.296Z,100007.91
2023-01-12T22:02:14.239Z,100021.13
2023-01-12T22:07:16.122Z,100025.03
2023-01-12T22:12:17.748Z,100032.47
2023-01-12T22:17:19.436Z,100036.44
2023-01-12T22:22:21.181Z,100040.03
2023-01-12T22:27:25.070Z,100057.41
2023-01-12T22:32:28.812Z,100046.44
2023-01-12T22:37:33.822Z,100046.34
2023-01-12T22:42:54.120Z,100045.97
2023-01-12T22:47:56.017Z,100052.66
2023-01-12T22:52:57.643Z,100033.88
2023-01-12T22:57:59.368Z,100048.97
2023-01-12T23:03:01.604Z,100053.13
2023-01-12T23:08:05.826Z,100058.72
2023-01-12T23:13:17.740Z,100066.16
2023-01-12T23:18:29.370Z,100069.19
2023-01-12T23:23:32.041Z,100058.88
2023-01-12T23:28:36.649Z,100056.03
2023-01-12T23:33:39.343Z,100062.00
2023-01-12T23:38:41.495Z,100067.13
2023-01-12T23:43:43.366Z,100064.50
2023-01-12T23:48:45.158Z,100072.13
2023-01-12T23:53:47.606Z,100060.38
2023-01-12T23:58:49.450Z,100068.31
